Time;durP1;ratioP1;P1;durP2;ratioP2;P2;SDS_P1;SDS_P2;PMS_P1;PMS_P2;Temp;Humidity;BMP_temperature;BMP_pressure;BME280_temperature;BME280_humidity;BME280_pressure;Samples;Min_cycle;Max_cycle;Signal;HPM_P1;HPM_P2
2023/07/11 00:02:09;;;;;;;;;;;;;;;21.35;59.89;96766.16;5087749;28;19940;-75
2023/07/11 00:04:36;;;;;;;;;;;;;;;21.32;60.05;96766.72;5106211;28;20225;-75
2023/07/11 00:07:02;;;;;;;;;;;;;;;21.29;59.83;96765.44;5104957;28;19935;-73
2023/07/11 00:09:28;;;;;;;;;;;;;;;21.26;59.98;96760.63;5087608;28;20203;-73
2023/07/11 00:11:54;;;;;;;;;;;;;;;21.23;60.67;96763.88;5105155;28;19934;-73
2023/07/11 00:14:20;;;;;;;;;;;;;;;21.21;60.77;96754.56;5104626;28;19930;-73
2023/07/11 00:16:46;;;;;;;;;;;;;;;21.16;60.47;96755.38;5087466;28;20007;-73
2023/07/11 00:19:12;;;;;;;;;;;;;;;21.14;60.66;96751.41;5105319;28;19944;-73
2023/07/11 00:21:38;;;;;;;;;;;;;;;21.11;60.98;96746.63;5106338;28;20011;-73
2023/07/11 00:24:05;;;;;;;;;;;;;;;21.09;61.57;96753.03;5105929;28;19964;-73
2023/07/11 00:26:31;;;;;;;;;;;;;;;21.07;61.63;96757.06;5104992;28;19957;-80
2023/07/11 00:28:59;;;;;;;;;;;;;;;21.03;61.63;96756.81;5104910;28;19942;-73
2023/07/11 00:31:25;;;;;;;;;;;;;;;21.02;62.33;96759.72;5087119;28;19964;-75
2023/07/11 00:33:51;;;;;;;;;;;;;;;20.97;61.43;96757.91;5106259;28;20002;-74
2023/07/11 00:36:17;;;;;;;;;;;;;;;20.94;63.39;96760.34;5105235;28;19941;-72
2023/07/11 00:38:43;;;;;;;;;;;;;;;20.90;63.39;96765.44;5105136;28;20230;-72
2023/07/11 00:41:08;;;;;;;;;;;;;;;20.86;62.56;96753.72;5105865;28;20221;-71
2023/07/11 00:43:34;;;;;;;;;;;;;;;20.82;62.89;96747.34;5104998;28;19946;-73
2023/07/11 00:46:02;;;;;;;;;;;;;;;20.80;62.83;96760.94;5105620;28;19936;-79
2023/07/11 00:48:31;;;;;;;;;;;;;;;20.77;62.68;96760.72;5105609;28;19940;-82
2023/07/11 00:50:57;;;;;;;;;;;;;;;20.72;63.09;96747.41;5104855;28;19955;-78
2023/07/11 00:53:24;;;;;;;;;;;;;;;20.68;63.12;96750.63;5104522;28;19936;-81
2023/07/11 00:55:50;;;;;;;;;;;;;;;20.65;62.87;96753.84;5103724;28;20220;-82
2023/07/11 00:58:17;;;;;;;;;;;;;;;20.63;63.08;96753.31;5104810;28;19975;-81
2023/07/11 01:00:44;;;;;;;;;;;;;;;20.59;62.84;96749.59;5103605;28;19941;-77
2023/07/11 01:03:09;;;;;;;;;;;;;;;20.56;63.30;96750.13;5087534;28;19948;-71
2023/07/11 01:05:37;;;;;;;;;;;;;;;20.53;63.04;96748.00;5105338;28;19933;-81
2023/07/11 01:08:02;;;;;;;;;;;;;;;20.50;63.27;96753.88;5105032;28;20233;-76
2023/07/11 01:10:28;;;;;;;;;;;;;;;20.46;63.90;96753.63;5103780;28;19958;-76
2023/07/11 01:12:57;;;;;;;;;;;;;;;20.45;64.01;96757.38;5103488;28;19942;-76
2023/07/11 01:15:23;;;;;;;;;;;;;;;20.42;64.21;96747.25;5104080;28;19938;-76
2023/07/11 01:17:49;;;;;;;;;;;;;;;20.40;64.40;96751.28;5104430;28;19955;-76
2023/07/11 01:20:15;;;;;;;;;;;;;;;20.37;64.07;96743.81;5104558;28;19934;-77
2023/07/11 01:22:41;;;;;;;;;;;;;;;20.34;64.76;96745.16;5105355;28;19979;-72
2023/07/11 01:25:12;;;;;;;;;;;;;;;20.31;64.32;96734.28;5103381;28;20259;-70
2023/07/11 01:27:39;;;;;;;;;;;;;;;20.30;64.77;96740.66;5104125;28;19946;-70
2023/07/11 01:30:06;;;;;;;;;;;;;;;20.27;64.71;96740.13;5105205;28;19954;-71
2023/07/11 01:32:32;;;;;;;;;;;;;;;20.22;65.53;96737.50;5086426;28;19940;-72
2023/07/11 01:34:58;;;;;;;;;;;;;;;20.20;65.81;96736.16;5105047;28;19936;-70
2023/07/11 01:37:23;;;;;;;;;;;;;;;20.15;65.84;96726.31;5104207;28;19940;-72
2023/07/11 01:39:49;;;;;;;;;;;;;;;20.13;65.59;96736.44;5103784;28;19936;-75
2023/07/11 01:42:15;;;;;;;;;;;;;;;20.08;66.02;96734.59;5103653;28;19940;-72
2023/07/11 01:44:41;;;;;;;;;;;;;;;20.04;67.35;96735.44;5103736;28;19944;-72
2023/07/11 01:47:07;;;;;;;;;;;;;;;19.99;66.43;96722.94;5103063;28;19983;-72
2023/07/11 01:49:34;;;;;;;;;;;;;;;19.96;66.95;96731.44;5102928;28;19946;-72
2023/07/11 01:52:04;;;;;;;;;;;;;;;19.95;66.81;96735.19;5104777;28;20224;-71
2023/07/11 01:54:30;;;;;;;;;;;;;;;19.91;66.83;96731.47;5102986;28;19941;-72
2023/07/11 01:56:57;;;;;;;;;;;;;;;19.87;66.17;96720.56;5104063;28;19950;-71
2023/07/11 01:59:22;;;;;;;;;;;;;;;19.82;67.40;96720.59;5103531;28;20210;-76
2023/07/11 02:01:48;;;;;;;;;;;;;;;19.78;67.51;96716.88;5086079;28;19947;-72
2023/07/11 02:04:21;;;;;;;;;;;;;;;19.76;67.70;96712.88;5103679;28;19940;-72
2023/07/11 02:06:48;;;;;;;;;;;;;;;19.72;67.92;96712.63;5104150;28;19940;-72
2023/07/11 02:09:13;;;;;;;;;;;;;;;19.67;68.43;96721.41;5103893;28;19937;-73
2023/07/11 02:11:39;;;;;;;;;;;;;;;19.65;68.35;96714.72;5103765;28;19963;-72
2023/07/11 02:14:05;;;;;;;;;;;;;;;19.62;68.11;96707.28;5103830;28;19944;-72
2023/07/11 02:16:31;;;;;;;;;;;;;;;19.60;68.39;96707.56;5103701;28;19937;-72
2023/07/11 02:18:57;;;;;;;;;;;;;;;19.59;68.30;96702.50;5104587;28;20313;-72
2023/07/11 02:21:23;;;;;;;;;;;;;;;19.56;68.12;96700.38;5103325;28;20094;-71
2023/07/11 02:23:49;;;;;;;;;;;;;;;19.51;67.74;96697.72;5086509;28;19949;-72
2023/07/11 02:26:15;;;;;;;;;;;;;;;19.45;68.71;96696.94;5104616;28;20231;-72
2023/07/11 02:28:41;;;;;;;;;;;;;;;19.41;69.16;96687.91;5104138;28;19935;-71
2023/07/11 02:31:07;;;;;;;;;;;;;;;19.38;69.31;96691.91;5104159;28;19991;-71
2023/07/11 02:33:33;;;;;;;;;;;;;;;19.35;69.59;96687.13;5104388;28;19937;-72
2023/07/11 02:35:59;;;;;;;;;;;;;;;19.34;69.85;96684.72;5102474;28;19943;-72
2023/07/11 02:38:25;;;;;;;;;;;;;;;19.32;70.43;96686.84;5085712;28;19942;-76
2023/07/11 02:40:50;;;;;;;;;;;;;;;19.31;70.71;96688.72;5103028;28;19979;-76
2023/07/11 02:43:17;;;;;;;;;;;;;;;19.30;70.24;96688.97;5103003;28;19939;-76
2023/07/11 02:45:43;;;;;;;;;;;;;;;19.29;70.57;96682.06;5102480;28;19936;-76
2023/07/11 02:48:09;;;;;;;;;;;;;;;19.27;70.66;96680.47;5103933;28;19929;-76
2023/07/11 02:50:35;;;;;;;;;;;;;;;19.25;70.85;96676.47;5086342;28;19954;-77
2023/07/11 02:53:01;;;;;;;;;;;;;;;19.24;71.75;96681.00;5102305;28;19940;-73
2023/07/11 02:55:26;;;;;;;;;;;;;;;19.23;71.84;96674.13;5105557;28;19934;-72
2023/07/11 02:57:52;;;;;;;;;;;;;;;19.23;71.93;96666.13;5106891;28;19969;-72
2023/07/11 03:00:18;;;;;;;;;;;;;;;19.24;71.88;96677.56;5107111;28;19953;-72
2023/07/11 03:02:44;;;;;;;;;;;;;;;19.24;72.28;96673.03;5107059;28;20001;-72
2023/07/11 03:05:10;;;;;;;;;;;;;;;19.24;72.51;96670.38;5107889;28;19981;-72
2023/07/11 03:07:36;;;;;;;;;;;;;;;19.24;71.67;96669.59;5107506;28;19948;-72
2023/07/11 03:10:02;;;;;;;;;;;;;;;19.24;71.65;96664.28;5107281;28;19952;-72
2023/07/11 03:12:28;;;;;;;;;;;;;;;19.24;71.93;96664.28;5107159;28;19950;-75
2023/07/11 03:14:54;;;;;;;;;;;;;;;19.24;72.51;96664.28;5106889;28;19929;-79
2023/07/11 03:17:20;;;;;;;;;;;;;;;19.25;72.15;96671.16;5106860;28;19965;-79
2023/07/11 03:19:46;;;;;;;;;;;;;;;19.25;72.99;96665.84;5088623;28;19994;-79
2023/07/11 03:22:11;;;;;;;;;;;;;;;19.25;72.92;96663.19;5105615;28;19943;-79
2023/07/11 03:24:37;;;;;;;;;;;;;;;19.25;73.28;96658.66;5105503;28;19945;-79
2023/07/11 03:27:03;;;;;;;;;;;;;;;19.25;73.33;96655.22;5106215;28;19937;-78
2023/07/11 03:29:29;;;;;;;;;;;;;;;19.25;73.47;96653.34;5105357;28;19937;-72
2023/07/11 03:31:56;;;;;;;;;;;;;;;19.26;72.97;96651.50;5106560;28;19992;-72
2023/07/11 03:34:21;;;;;;;;;;;;;;;19.24;73.67;96649.09;5106227;28;19939;-74
2023/07/11 03:36:47;;;;;;;;;;;;;;;19.25;73.57;96649.91;5106955;28;20203;-74
2023/07/11 03:39:13;;;;;;;;;;;;;;;19.25;73.10;96652.56;5106418;28;19973;-75
2023/07/11 03:41:39;;;;;;;;;;;;;;;19.25;74.29;96656.00;5107121;28;19941;-74
2023/07/11 03:44:05;;;;;;;;;;;;;;;19.26;73.42;96646.19;5107121;28;19931;-73
2023/07/11 03:46:31;;;;;;;;;;;;;;;19.27;74.16;96650.44;5106303;28;19939;-74
2023/07/11 03:48:58;;;;;;;;;;;;;;;19.27;73.32;96645.09;5106257;28;19965;-76
2023/07/11 03:51:24;;;;;;;;;;;;;;;19.28;73.19;96641.41;5106077;28;19950;-76
2023/07/11 03:53:50;;;;;;;;;;;;;;;19.29;73.92;96652.81;5106065;28;19936;-76
2023/07/11 03:56:15;;;;;;;;;;;;;;;19.30;73.90;96646.44;5106574;28;19992;-76
2023/07/11 03:58:41;;;;;;;;;;;;;;;19.29;74.20;96644.84;5106518;28;19944;-76
2023/07/11 04:01:07;;;;;;;;;;;;;;;19.30;73.95;96635.78;5105943;28;19931;-76
2023/07/11 04:03:33;;;;;;;;;;;;;;;19.29;74.04;96636.88;5105923;28;19932;-76
2023/07/11 04:05:59;;;;;;;;;;;;;;;19.30;73.71;96641.94;5105473;28;19996;-76
2023/07/11 04:08:25;;;;;;;;;;;;;;;19.30;73.87;96633.13;5105846;28;19929;-76
2023/07/11 04:10:50;;;;;;;;;;;;;;;19.31;73.32;96638.19;5104546;28;19993;-73
2023/07/11 04:13:16;;;;;;;;;;;;;;;19.32;74.48;96631.00;5106484;28;20329;-74
2023/07/11 04:15:42;;;;;;;;;;;;;;;19.33;74.18;96636.06;5105680;28;19932;-73
2023/07/11 04:18:08;;;;;;;;;;;;;;;19.35;74.61;96638.47;5105716;28;19970;-74
2023/07/11 04:20:35;;;;;;;;;;;;;;;19.35;74.95;96641.91;5105576;28;19938;-73
2023/07/11 04:23:01;;;;;;;;;;;;;;;19.36;76.06;96635.53;5105547;28;19943;-71
2023/07/11 04:25:27;;;;;;;;;;;;;;;19.36;75.25;96630.22;5106055;28;19945;-72
2023/07/11 04:27:52;;;;;;;;;;;;;;;19.37;75.32;96631.78;5087472;28;20272;-71
2023/07/11 04:30:18;;;;;;;;;;;;;;;19.39;75.26;96634.19;5104276;28;19948;-71
2023/07/11 04:32:44;;;;;;;;;;;;;;;19.42;74.98;96638.97;5105322;28;19934;-72
2023/07/11 04:35:12;;;;;;;;;;;;;;;19.44;74.87;96634.16;5088063;28;20085;-71
2023/07/11 04:37:38;;;;;;;;;;;;;;;19.48;74.89;96635.22;5087250;28;20248;-72
2023/07/11 04:40:04;;;;;;;;;;;;;;;19.53;75.42;96637.88;5104160;28;19941;-71
2023/07/11 04:42:30;;;;;;;;;;;;;;;19.56;75.19;96628.56;5087900;28;19960;-69
2023/07/11 04:44:55;;;;;;;;;;;;;;;19.60;74.56;96625.09;5104101;28;20226;-76
2023/07/11 04:47:22;;;;;;;;;;;;;;;19.66;75.16;96628.53;5105700;28;19976;-76
2023/07/11 04:49:48;;;;;;;;;;;;;;;19.72;75.62;96627.47;5105102;28;20107;-82
2023/07/11 04:52:14;;;;;;;;;;;;;;;19.79;75.50;96632.50;5087738;28;19961;-83
2023/07/11 04:54:40;;;;;;;;;;;;;;;19.86;74.76;96631.16;5086960;28;19944;-79
2023/07/11 04:57:06;;;;;;;;;;;;;;;19.92;74.48;96631.91;5103746;28;20141;-78
2023/07/11 04:59:31;;;;;;;;;;;;;;;19.98;73.85;96628.16;5104843;28;19943;-79
2023/07/11 05:01:57;;;;;;;;;;;;;;;20.05;73.52;96619.88;5105682;28;19930;-77
2023/07/11 05:04:23;;;;;;;;;;;;;;;20.11;73.48;96620.66;5104849;28;19939;-72
2023/07/11 05:06:49;;;;;;;;;;;;;;;20.16;73.33;96618.75;5105271;28;20164;-74
2023/07/11 05:09:15;;;;;;;;;;;;;;;20.23;72.75;96619.25;5104720;28;19936;-75
2023/07/11 05:11:41;;;;;;;;;;;;;;;20.28;73.01;96611.25;5104572;28;19964;-74
2023/07/11 05:14:07;;;;;;;;;;;;;;;20.36;73.59;96609.06;5104636;28;19995;-73
2023/07/11 05:16:32;;;;;;;;;;;;;;;20.43;72.17;96604.19;5103934;28;19936;-74
2023/07/11 05:18:58;;;;;;;;;;;;;;;20.53;72.03;96604.13;5103906;28;20129;-74
2023/07/11 05:21:24;;;;;;;;;;;;;;;20.63;71.20;96595.31;5105028;28;19941;-72
2023/07/11 05:23:50;;;;;;;;;;;;;;;20.74;71.05;96599.47;5103453;28;19941;-71
2023/07/11 05:26:17;;;;;;;;;;;;;;;20.89;70.39;96582.53;5103395;28;20228;-71
2023/07/11 05:28:44;;;;;;;;;;;;;;;21.05;70.10;96581.31;5104038;28;19941;-71
2023/07/11 05:31:10;;;;;;;;;;;;;;;21.22;69.68;96577.44;5104354;28;19951;-71
2023/07/11 05:33:36;;;;;;;;;;;;;;;21.40;69.69;96579.38;5104877;28;19961;-72
2023/07/11 05:38:48;;;;;;;;;;;;;;;21.82;67.90;96574.38;5105158;28;19938;-79
2023/07/11 05:41:14;;;;;;;;;;;;;;;21.97;66.69;96571.50;5086313;28;19944;-72
2023/07/11 05:43:40;;;;;;;;;;;;;;;22.18;66.52;96555.19;5103172;28;20104;-74
2023/07/11 05:46:06;;;;;;;;;;;;;;;22.36;66.39;96567.75;5103138;28;19961;-74
2023/07/11 05:48:32;;;;;;;;;;;;;;;22.55;66.13;96562.38;5105000;28;19962;-74
2023/07/11 05:51:11;;;;;;;;;;;;;;;22.72;65.49;96545.81;5104077;28;19983;-74
2023/07/11 05:53:37;;;;;;;;;;;;;;;22.93;65.20;96556.16;5104383;28;20247;-74
2023/07/11 05:56:03;;;;;;;;;;;;;;;23.08;64.43;96543.34;5104049;28;19949;-73
2023/07/11 05:58:30;;;;;;;;;;;;;;;23.24;63.04;96529.66;5104378;28;19930;-72
2023/07/11 06:00:57;;;;;;;;;;;;;;;23.36;62.82;96535.31;5086160;28;19938;-75
2023/07/11 06:03:24;;;;;;;;;;;;;;;23.48;62.73;96532.94;5103660;28;19937;-75
2023/07/11 06:05:50;;;;;;;;;;;;;;;23.67;62.91;96540.84;5102775;28;19943;-72
2023/07/11 06:08:16;;;;;;;;;;;;;;;23.87;62.49;96533.47;5102967;28;20126;-74
2023/07/11 06:10:42;;;;;;;;;;;;;;;24.07;62.09;96541.06;5103894;28;19957;-73
2023/07/11 06:13:12;;;;;;;;;;;;;;;24.16;61.03;96522.38;5103982;28;19933;-73
2023/07/11 06:15:38;;;;;;;;;;;;;;;24.15;60.98;96526.19;5103960;28;19927;-72
2023/07/11 06:18:04;;;;;;;;;;;;;;;24.24;60.24;96518.97;5103777;28;19975;-74
2023/07/11 06:20:30;;;;;;;;;;;;;;;24.38;60.50;96515.44;5086687;28;19945;-74
2023/07/11 06:22:56;;;;;;;;;;;;;;;24.50;59.37;96513.03;5085920;28;19943;-74
2023/07/11 06:25:22;;;;;;;;;;;;;;;24.62;59.91;96513.28;5085944;28;19987;-73
2023/07/11 06:27:48;;;;;;;;;;;;;;;24.73;59.04;96507.66;5086644;28;19962;-73
2023/07/11 06:30:14;;;;;;;;;;;;;;;24.80;58.72;96506.13;5089662;28;20211;-73
2023/07/11 06:32:40;;;;;;;;;;;;;;;24.97;58.45;96505.41;5089468;28;19982;-73
2023/07/11 06:35:06;;;;;;;;;;;;;;;25.10;57.64;96496.47;5090259;28;20243;-75
2023/07/11 06:37:32;;;;;;;;;;;;;;;25.19;57.36;96506.44;5107320;28;19939;-74
2023/07/11 06:39:58;;;;;;;;;;;;;;;25.28;56.65;96491.97;5107619;28;19990;-74
2023/07/11 06:42:23;;;;;;;;;;;;;;;25.45;57.87;96499.28;5106741;28;19933;-74
2023/07/11 06:44:49;;;;;;;;;;;;;;;25.59;56.13;96491.06;5107766;28;19944;-74
2023/07/11 06:47:15;;;;;;;;;;;;;;;25.76;56.25;96497.59;5106308;28;20007;-74
2023/07/11 06:49:43;;;;;;;;;;;;;;;25.92;56.29;96501.41;5107851;28;20142;-74
2023/07/11 06:52:09;;;;;;;;;;;;;;;26.07;55.71;96492.09;5107016;28;19955;-75
2023/07/11 06:54:35;;;;;;;;;;;;;;;26.28;55.21;96484.16;5089225;28;19942;-75
2023/07/11 06:57:02;;;;;;;;;;;;;;;26.45;54.27;96477.97;5106174;28;19951;-75
2023/07/11 06:59:28;;;;;;;;;;;;;;;26.58;54.05;96481.59;5106090;28;19945;-75
2023/07/11 07:01:54;;;;;;;;;;;;;;;26.64;53.11;96480.31;5107742;28;20157;-74
2023/07/11 07:04:20;;;;;;;;;;;;;;;26.73;52.87;96478.38;5106068;28;20029;-75
2023/07/11 07:06:46;;;;;;;;;;;;;;;26.87;53.94;96486.28;5107076;28;20003;-75
2023/07/11 07:09:12;;;;;;;;;;;;;;;27.04;52.71;96480.81;5106703;28;19975;-75
2023/07/11 07:11:38;;;;;;;;;;;;;;;27.18;50.01;96469.03;5106918;28;19948;-74
2023/07/11 07:14:08;;;;;;;;;;;;;;;27.26;51.02;96479.78;5089800;28;19943;-80
2023/07/11 07:16:35;;;;;;;;;;;;;;;27.37;50.05;96477.50;5089484;28;20219;-80
2023/07/11 07:19:01;;;;;;;;;;;;;;;27.53;49.08;96475.06;5106526;28;19942;-79
2023/07/11 07:21:27;;;;;;;;;;;;;;;27.59;48.97;96470.25;5089573;28;19947;-80
2023/07/11 07:23:53;;;;;;;;;;;;;;;27.68;48.20;96468.28;5106357;28;19941;-80
2023/07/11 07:26:19;;;;;;;;;;;;;;;27.79;48.50;96466.78;5106755;28;20116;-81
2023/07/11 07:28:45;;;;;;;;;;;;;;;27.82;46.36;96468.00;5107521;28;19981;-80
2023/07/11 07:31:11;;;;;;;;;;;;;;;27.91;47.07;96474.97;5089354;28;20150;-81
2023/07/11 07:33:37;;;;;;;;;;;;;;;27.93;45.85;96467.31;5106210;28;20115;-79
2023/07/11 07:36:04;;;;;;;;;;;;;;;27.97;46.90;96480.94;5105434;28;20218;-81
2023/07/11 07:38:30;;;;;;;;;;;;;;;28.07;45.20;96477.03;5088432;28;19940;-80
2023/07/11 07:40:58;;;;;;;;;;;;;;;28.09;45.79;96477.50;5104525;28;19941;-80
2023/07/11 07:43:24;;;;;;;;;;;;;;;27.96;46.11;96471.25;5105228;28;19946;-80
2023/07/11 07:45:51;;;;;;;;;;;;;;;27.88;46.21;96462.13;5106019;28;20108;-80
2023/07/11 07:48:17;;;;;;;;;;;;;;;27.89;46.78;96465.63;5107132;28;19930;-73
2023/07/11 07:50:43;;;;;;;;;;;;;;;27.93;45.70;96466.56;5088895;28;20121;-75
2023/07/11 07:53:08;;;;;;;;;;;;;;;28.03;46.00;96458.03;5088194;28;19970;-75
2023/07/11 07:55:35;;;;;;;;;;;;;;;28.12;46.07;96457.97;5088020;28;20015;-76
2023/07/11 07:58:01;;;;;;;;;;;;;;;28.27;45.79;96453.88;5106106;28;19958;-76
2023/07/11 08:00:27;;;;;;;;;;;;;;;28.24;44.60;96458.00;5106292;28;20221;-75
2023/07/11 08:02:53;;;;;;;;;;;;;;;28.18;45.77;96459.34;5106773;28;19999;-75
2023/07/11 08:05:19;;;;;;;;;;;;;;;28.13;46.50;96457.63;5104783;28;19945;-76
2023/07/11 08:07:45;;;;;;;;;;;;;;;28.17;46.59;96465.06;5104784;28;20128;-75
2023/07/11 08:10:11;;;;;;;;;;;;;;;28.28;46.78;96453.50;5105404;28;19932;-80
2023/07/11 08:12:37;;;;;;;;;;;;;;;28.43;46.02;96460.22;5104530;28;19956;-80
2023/07/11 08:15:03;;;;;;;;;;;;;;;28.54;45.72;96445.19;5088560;28;19940;-80
2023/07/11 08:17:30;;;;;;;;;;;;;;;28.68;44.25;96434.06;5104514;28;20177;-79
2023/07/11 08:19:56;;;;;;;;;;;;;;;28.84;44.62;96442.31;5104478;28;19939;-80
2023/07/11 08:22:22;;;;;;;;;;;;;;;28.92;45.73;96441.41;5087678;28;19987;-80
2023/07/11 08:24:48;;;;;;;;;;;;;;;29.07;46.04;96439.16;5088311;28;20021;-75
2023/07/11 08:27:13;;;;;;;;;;;;;;;29.24;46.23;96436.25;5104368;28;20110;-75
2023/07/11 08:29:44;;;;;;;;;;;;;;;29.39;45.25;96431.28;5088224;28;19945;-75
2023/07/11 08:32:14;;;;;;;;;;;;;;;29.57;44.49;96424.50;5104645;28;19996;-75
2023/07/11 08:34:41;;;;;;;;;;;;;;;29.76;45.92;96429.31;5104326;28;19947;-75
2023/07/11 08:37:07;;;;;;;;;;;;;;;29.97;43.94;96425.66;5104631;28;20203;-75
2023/07/11 08:39:33;;;;;;;;;;;;;;;30.09;43.83;96420.16;5104746;28;19951;-76
2023/07/11 08:42:05;;;;;;;;;;;;;;;30.13;43.20;96418.34;5104966;28;19946;-75
2023/07/11 08:44:46;;;;;;;;;;;;;;;30.20;43.72;96418.53;5105853;28;20094;-75
2023/07/11 08:47:16;;;;;;;;;;;;;;;30.25;42.73;96415.56;5104655;28;19942;-75
2023/07/11 08:49:49;;;;;;;;;;;;;;;30.29;44.00;96419.19;5087321;28;19937;-75
2023/07/11 08:52:18;;;;;;;;;;;;;;;30.39;43.84;96412.50;5104610;28;19948;-75
2023/07/11 08:54:51;;;;;;;;;;;;;;;30.50;42.79;96407.34;5105628;28;19938;-75
2023/07/11 08:57:19;;;;;;;;;;;;;;;30.50;42.35;96405.41;5104974;28;20112;-75
2023/07/11 08:59:59;;;;;;;;;;;;;;;30.52;42.74;96399.66;5104408;28;20204;-75
2023/07/11 09:02:36;;;;;;;;;;;;;;;30.59;43.43;96402.53;5105262;28;19937;-75
2023/07/11 09:05:03;;;;;;;;;;;;;;;30.81;44.04;96398.44;5104022;28;19935;-75
2023/07/11 09:07:41;;;;;;;;;;;;;;;30.89;42.68;96386.66;5103714;28;20130;-75
2023/07/11 09:10:22;;;;;;;;;;;;;;;30.89;43.12;96389.38;5086765;28;19935;-75
2023/07/11 09:13:11;;;;;;;;;;;;;;;30.98;44.05;96389.19;5087202;28;19953;-75
2023/07/11 09:15:43;;;;;;;;;;;;;;;31.13;42.96;96388.34;5086990;28;19939;-76
2023/07/11 09:18:17;;;;;;;;;;;;;;;31.22;43.71;96376.53;5103398;28;19960;-75
2023/07/11 09:20:47;;;;;;;;;;;;;;;31.34;42.48;96371.00;5103937;28;20266;-75
2023/07/11 09:23:20;;;;;;;;;;;;;;;31.45;43.57;96366.63;5105177;28;19938;-76
2023/07/11 09:25:47;;;;;;;;;;;;;;;31.62;43.34;96362.69;5104221;28;19941;-76
2023/07/11 09:28:18;;;;;;;;;;;;;;;31.67;41.71;96362.41;5103488;28;19939;-76
2023/07/11 09:30:55;;;;;;;;;;;;;;;31.62;40.65;96370.03;5087230;28;19943;-75
2023/07/11 09:33:31;;;;;;;;;;;;;;;31.58;40.63;96361.84;5104903;28;19956;-75
2023/07/11 09:35:58;;;;;;;;;;;;;;;31.52;40.94;96361.34;5104142;28;20122;-75
2023/07/11 09:38:40;;;;;;;;;;;;;;;31.47;40.37;96363.56;5086466;28;19934;-76
2023/07/11 09:41:12;;;;;;;;;;;;;;;31.39;41.99;96362.59;5087191;28;19937;-75
2023/07/11 09:43:38;;;;;;;;;;;;;;;31.52;41.92;96366.78;5086328;28;19941;-74
2023/07/11 09:46:11;;;;;;;;;;;;;;;31.69;42.10;96368.28;5086390;28;20227;-74
2023/07/11 09:48:37;;;;;;;;;;;;;;;31.82;40.46;96366.19;5103866;28;19937;-75
2023/07/11 09:51:24;;;;;;;;;;;;;;;31.83;41.22;96356.91;5103014;28;20017;-75
2023/07/11 09:53:53;;;;;;;;;;;;;;;31.86;41.71;96358.91;5103929;28;19937;-75
2023/07/11 09:56:19;;;;;;;;;;;;;;;31.97;40.92;96359.09;5086236;28;19957;-76
2023/07/11 09:58:46;;;;;;;;;;;;;;;32.12;40.91;96354.75;5103861;28;20098;-75
2023/07/11 10:01:17;;;;;;;;;;;;;;;32.24;40.15;96354.59;5103014;28;19943;-76
2023/07/11 10:03:45;;;;;;;;;;;;;;;32.26;40.10;96348.81;5104516;28;19938;-76
2023/07/11 10:06:24;;;;;;;;;;;;;;;32.28;40.20;96354.66;5091102;28;19943;-76
2023/07/11 10:08:50;;;;;;;;;;;;;;;32.44;40.42;96346.38;5091001;28;19936;-75
2023/07/11 10:11:16;;;;;;;;;;;;;;;32.61;39.78;96342.41;5108212;28;19939;-76
2023/07/11 10:13:44;;;;;;;;;;;;;;;32.81;39.16;96346.59;5107082;28;20156;-76
2023/07/11 10:16:14;;;;;;;;;;;;;;;32.85;38.57;96346.66;5108934;28;19940;-76
2023/07/11 10:18:43;;;;;;;;;;;;;;;32.83;39.33;96340.81;5106824;28;20250;-80
2023/07/11 10:21:12;;;;;;;;;;;;;;;32.66;39.63;96339.38;5107213;28;19956;-80
2023/07/11 10:23:41;;;;;;;;;;;;;;;32.60;39.71;96335.41;5106937;28;19948;-80
2023/07/11 10:26:10;;;;;;;;;;;;;;;32.56;40.43;96330.69;5108545;28;20112;-79
2023/07/11 10:28:39;;;;;;;;;;;;;;;32.63;40.32;96335.44;5106928;28;19938;-80
2023/07/11 10:31:20;;;;;;;;;;;;;;;32.57;39.55;96328.78;5107869;28;19937;-80
2023/07/11 10:33:56;;;;;;;;;;;;;;;32.69;40.11;96323.13;5106748;28;19943;-75
2023/07/11 10:36:25;;;;;;;;;;;;;;;32.95;40.36;96321.59;5089706;28;19937;-75
2023/07/11 10:38:57;;;;;;;;;;;;;;;33.21;39.87;96325.44;5068868;28;19942;-75
2023/07/11 10:41:46;;;;;;;;;;;;;;;33.36;39.62;96317.06;5069539;28;19953;-76
2023/07/11 10:44:15;;;;;;;;;;;;;;;33.45;39.36;96314.09;5069591;28;19931;-75
2023/07/11 10:46:47;;;;;;;;;;;;;;;33.67;39.50;96308.91;5069427;28;19932;-76
2023/07/11 10:49:15;;;;;;;;;;;;;;;33.67;38.81;96306.97;5068967;28;19928;-75
2023/07/11 10:51:49;;;;;;;;;;;;;;;33.65;38.73;96303.06;5068634;28;19963;-75
2023/07/11 10:54:23;;;;;;;;;;;;;;;33.81;38.47;96305.56;5069482;28;20221;-80
2023/07/11 10:56:53;;;;;;;;;;;;;;;33.82;38.72;96296.25;5085570;28;19948;-80
2023/07/11 10:59:22;;;;;;;;;;;;;;;33.86;38.36;96286.97;5069402;28;19931;-80
2023/07/11 11:01:54;;;;;;;;;;;;;;;33.96;38.71;96286.28;5068560;28;20176;-81
2023/07/11 11:04:19;;;;;;;;;;;;;;;34.15;38.30;96277.16;5085263;28;20001;-80
2023/07/11 11:06:58;;;;;;;;;;;;;;;34.24;36.45;96267.88;5068522;28;19933;-80
2023/07/11 11:09:43;;;;;;;;;;;;;;;34.22;37.07;96270.97;5077516;28;19942;-76
2023/07/11 11:12:18;;;;;;;;;;;;;;;34.31;37.29;96255.13;5105777;28;19953;-80
2023/07/11 11:14:52;;;;;;;;;;;;;;;34.48;36.24;96253.69;5106266;28;19931;-76
2023/07/11 11:17:27;;;;;;;;;;;;;;;34.65;37.16;96252.25;5088660;28;19961;-75
2023/07/11 11:20:05;;;;;;;;;;;;;;;34.82;36.26;96258.97;5105646;28;19948;-76
2023/07/11 11:22:37;;;;;;;;;;;;;;;34.78;36.39;96258.16;5106536;28;20218;-76
2023/07/11 11:25:10;;;;;;;;;;;;;;;34.74;35.09;96249.97;5105659;28;19943;-75
2023/07/11 11:27:45;;;;;;;;;;;;;;;34.81;35.92;96253.88;5107328;28;19937;-77
2023/07/11 11:30:27;;;;;;;;;;;;;;;34.89;36.06;96247.31;5089529;28;19940;-76
2023/07/11 11:33:22;;;;;;;;;;;;;;;34.97;34.97;96232.56;5106425;28;19976;-79
2023/07/11 11:36:08;;;;;;;;;;;;;;;34.98;34.76;96225.94;5075825;28;19947;-80
2023/07/11 11:38:38;;;;;;;;;;;;;;;35.10;34.54;96225.59;5088546;28;19944;-79
2023/07/11 11:41:10;;;;;;;;;;;;;;;35.34;35.01;96231.53;5089334;28;19942;-80
2023/07/11 11:43:37;;;;;;;;;;;;;;;35.53;35.08;96224.97;5107345;28;19940;-81
2023/07/11 11:46:04;;;;;;;;;;;;;;;35.37;33.68;96217.94;5105328;28;19999;-80
2023/07/11 11:48:31;;;;;;;;;;;;;;;35.27;34.73;96226.09;5105296;28;19934;-76
2023/07/11 11:50:58;;;;;;;;;;;;;;;35.48;35.06;96222.63;5089069;28;20002;-80
2023/07/11 11:53:32;;;;;;;;;;;;;;;35.74;35.11;96213.34;5106233;28;19960;-79
2023/07/11 11:55:59;;;;;;;;;;;;;;;36.04;35.08;96210.25;5106538;28;19951;-80
2023/07/11 11:58:27;;;;;;;;;;;;;;;36.23;34.54;96198.16;5106421;28;19925;-79
2023/07/11 12:00:56;;;;;;;;;;;;;;;36.35;33.60;96200.47;5106087;28;20155;-80
2023/07/11 12:03:25;;;;;;;;;;;;;;;36.41;32.10;96191.88;5104984;28;20237;-79
2023/07/11 12:05:52;;;;;;;;;;;;;;;36.26;31.84;96185.66;5104828;28;19962;-79
2023/07/11 12:08:29;;;;;;;;;;;;;;;36.06;32.05;96198.94;5105955;28;19957;-76
2023/07/11 12:11:01;;;;;;;;;;;;;;;35.68;32.13;96188.41;5104716;28;19946;-77
2023/07/11 12:13:28;;;;;;;;;;;;;;;35.68;32.80;96193.84;5104583;28;19949;-77
2023/07/11 12:15:55;;;;;;;;;;;;;;;35.91;32.91;96196.22;5104772;28;19937;-77
2023/07/11 12:18:26;;;;;;;;;;;;;;;36.15;33.87;96183.72;5087912;28;19974;-76
2023/07/11 12:21:10;;;;;;;;;;;;;;;36.35;32.75;96177.84;5087718;28;19945;-77
2023/07/11 12:23:39;;;;;;;;;;;;;;;36.58;32.98;96174.66;5105198;28;19954;-76
2023/07/11 12:26:14;;;;;;;;;;;;;;;36.66;32.19;96176.22;5105737;28;19938;-79
2023/07/11 12:28:41;;;;;;;;;;;;;;;36.38;30.21;96169.66;5105753;28;19943;-77
2023/07/11 12:31:17;;;;;;;;;;;;;;;36.07;29.76;96167.72;5105760;28;19936;-76
2023/07/11 12:33:45;;;;;;;;;;;;;;;36.04;29.91;96161.09;5088139;28;19952;-77
2023/07/11 12:36:19;;;;;;;;;;;;;;;35.87;31.07;96162.69;5104217;28;19955;-77
2023/07/11 12:39:00;;;;;;;;;;;;;;;35.69;31.21;96165.41;5105062;28;19955;-77
2023/07/11 12:41:38;;;;;;;;;;;;;;;35.51;31.04;96154.47;5104504;28;19933;-76
2023/07/11 12:44:10;;;;;;;;;;;;;;;35.49;30.97;96147.81;5088199;28;20196;-75
2023/07/11 12:46:36;;;;;;;;;;;;;;;35.36;30.83;96142.75;5088034;28;20117;-75
2023/07/11 12:49:04;;;;;;;;;;;;;;;35.52;30.18;96141.59;5087180;28;19939;-75
2023/07/11 12:51:34;;;;;;;;;;;;;;;35.68;29.60;96138.50;5104009;28;19944;-75
2023/07/11 12:54:03;;;;;;;;;;;;;;;35.60;27.96;96128.75;5105793;28;19955;-75
2023/07/11 12:56:29;;;;;;;;;;;;;;;35.44;26.61;96138.06;5063218;28;19978;-74